Llandudno Junction, United Kingdom
Current Conditions -  °F | °C
As of 10:50 PM on Saturday 20 Dec 2014 (Local Time) from EGOV Reporting Station
Broken Clouds Broken Clouds  
Wind Chill: 41°   Ceiling: 3200
Heat Index: 48°   Visibility: 6mi
Dew Point: 39°   Wind: 22mph
Humidity: 71%   Direction: 240°WSW
Pressure: 30.36"   Gusts: NA
Location:  53.28°N, 3.8°W
Report Text: EGOV 202250Z AUTO 24019KT 9999 BKN032/// 09/04 Q1028
Loading
Personal Weather Stations






























Interactive Weather Map New forecast layout! Learn more

10-Day Weather Forecast

Advertisements
Track Severe Weather on mobile